sensor_id;sensor_type;location;lat;lon;timestamp;temperature;humidity
48836;DHT22;62581;47.342;7.908;2022-11-04T00:01:22;11.10;99.90
48836;DHT22;62581;47.342;7.908;2022-11-04T00:03:49;11.10;99.90
48836;DHT22;62581;47.342;7.908;2022-11-04T00:06:17;11.10;99.90
48836;DHT22;62581;47.342;7.908;2022-11-04T00:08:46;11.00;99.90
48836;DHT22;62581;47.342;7.908;2022-11-04T00:11:13;11.00;99.90
48836;DHT22;62581;47.342;7.908;2022-11-04T00:13:57;11.00;99.90
48836;DHT22;62581;47.342;7.908;2022-11-04T00:16:24;11.00;99.90
48836;DHT22;62581;47.342;7.908;2022-11-04T00:19:08;11.00;99.90
48836;DHT22;62581;47.342;7.908;2022-11-04T00:21:36;11.10;99.90
48836;DHT22;62581;47.342;7.908;2022-11-04T00:24:21;11.10;99.90
48836;DHT22;62581;47.342;7.908;2022-11-04T00:27:01;11.10;99.90
48836;DHT22;62581;47.342;7.908;2022-11-04T00:29:45;11.10;99.90
48836;DHT22;62581;47.342;7.908;2022-11-04T00:32:12;11.10;99.90
48836;DHT22;62581;47.342;7.908;2022-11-04T00:34:56;11.10;99.90
48836;DHT22;62581;47.342;7.908;2022-11-04T00:37:25;11.10;99.90
48836;DHT22;62581;47.342;7.908;2022-11-04T00:39:52;11.10;99.90
48836;DHT22;62581;47.342;7.908;2022-11-04T00:42:18;11.00;99.90
48836;DHT22;62581;47.342;7.908;2022-11-04T00:44:45;11.00;99.90
48836;DHT22;62581;47.342;7.908;2022-11-04T00:47:12;11.00;99.90
48836;DHT22;62581;47.342;7.908;2022-11-04T00:49:39;11.00;99.90
48836;DHT22;62581;47.342;7.908;2022-11-04T00:52:05;11.00;99.90
48836;DHT22;62581;47.342;7.908;2022-11-04T00:54:33;11.00;99.90
48836;DHT22;62581;47.342;7.908;2022-11-04T00:57:00;10.90;99.90
48836;DHT22;62581;47.342;7.908;2022-11-04T00:59:27;10.80;99.90
48836;DHT22;62581;47.342;7.908;2022-11-04T01:01:54;10.80;99.90
48836;DHT22;62581;47.342;7.908;2022-11-04T01:04:20;10.70;99.90
48836;DHT22;62581;47.342;7.908;2022-11-04T01:06:47;10.70;99.90
48836;DHT22;62581;47.342;7.908;2022-11-04T01:09:14;10.70;99.90
48836;DHT22;62581;47.342;7.908;2022-11-04T01:11:42;10.70;99.90
48836;DHT22;62581;47.342;7.908;2022-11-04T01:14:09;10.70;99.90
48836;DHT22;62581;47.342;7.908;2022-11-04T01:16:36;10.70;99.90
48836;DHT22;62581;47.342;7.908;2022-11-04T01:19:02;10.70;99.90
48836;DHT22;62581;47.342;7.908;2022-11-04T01:21:29;10.70;99.90
48836;DHT22;62581;47.342;7.908;2022-11-04T01:23:56;10.60;99.90
48836;DHT22;62581;47.342;7.908;2022-11-04T01:26:23;10.60;99.90
48836;DHT22;62581;47.342;7.908;2022-11-04T01:28:52;10.50;99.90
48836;DHT22;62581;47.342;7.908;2022-11-04T01:31:21;10.50;99.90
48836;DHT22;62581;47.342;7.908;2022-11-04T01:33:48;10.50;99.90
48836;DHT22;62581;47.342;7.908;2022-11-04T01:36:15;10.50;99.90
48836;DHT22;62581;47.342;7.908;2022-11-04T01:38:42;10.40;99.90
48836;DHT22;62581;47.342;7.908;2022-11-04T01:41:10;10.40;99.90
48836;DHT22;62581;47.342;7.908;2022-11-04T01:43:43;10.30;99.90
48836;DHT22;62581;47.342;7.908;2022-11-04T01:46:20;10.30;99.90
48836;DHT22;62581;47.342;7.908;2022-11-04T01:48:48;10.30;99.90
48836;DHT22;62581;47.342;7.908;2022-11-04T01:51:16;10.20;99.90
48836;DHT22;62581;47.342;7.908;2022-11-04T01:53:43;10.20;99.90
48836;DHT22;62581;47.342;7.908;2022-11-04T01:56:10;10.30;99.90
48836;DHT22;62581;47.342;7.908;2022-11-04T01:58:39;10.30;99.90
48836;DHT22;62581;47.342;7.908;2022-11-04T02:01:07;10.30;99.90
48836;DHT22;62581;47.342;7.908;2022-11-04T02:03:35;10.30;99.90
48836;DHT22;62581;47.342;7.908;2022-11-04T02:06:03;10.30;99.90
48836;DHT22;62581;47.342;7.908;2022-11-04T02:08:31;10.30;99.90
48836;DHT22;62581;47.342;7.908;2022-11-04T02:10:58;10.30;99.90
48836;DHT22;62581;47.342;7.908;2022-11-04T02:13:26;10.40;99.90
48836;DHT22;62581;47.342;7.908;2022-11-04T02:15:54;10.40;99.90
48836;DHT22;62581;47.342;7.908;2022-11-04T02:21:15;10.30;99.90
48836;DHT22;62581;47.342;7.908;2022-11-04T02:23:49;10.30;99.90
48836;DHT22;62581;47.342;7.908;2022-11-04T02:29:13;10.30;99.90
48836;DHT22;62581;47.342;7.908;2022-11-04T02:31:43;10.30;99.90
48836;DHT22;62581;47.342;7.908;2022-11-04T02:34:13;10.30;99.90
48836;DHT22;62581;47.342;7.908;2022-11-04T02:36:45;10.20;99.90
48836;DHT22;62581;47.342;7.908;2022-11-04T02:39:15;10.20;99.90
48836;DHT22;62581;47.342;7.908;2022-11-04T02:41:47;10.20;99.90
48836;DHT22;62581;47.342;7.908;2022-11-04T02:44:20;10.20;99.90
48836;DHT22;62581;47.342;7.908;2022-11-04T02:46:48;10.20;99.90
48836;DHT22;62581;47.342;7.908;2022-11-04T02:49:17;10.30;99.90
48836;DHT22;62581;47.342;7.908;2022-11-04T02:51:45;10.20;99.90
48836;DHT22;62581;47.342;7.908;2022-11-04T02:54:15;10.20;99.90
48836;DHT22;62581;47.342;7.908;2022-11-04T02:56:45;10.30;99.90
48836;DHT22;62581;47.342;7.908;2022-11-04T02:59:16;10.20;99.90
48836;DHT22;62581;47.342;7.908;2022-11-04T03:01:47;10.20;99.90
48836;DHT22;62581;47.342;7.908;2022-11-04T03:04:16;10.10;99.90
48836;DHT22;62581;47.342;7.908;2022-11-04T03:06:46;10.10;99.90
48836;DHT22;62581;47.342;7.908;2022-11-04T03:09:14;10.10;99.90
48836;DHT22;62581;47.342;7.908;2022-11-04T03:11:43;10.10;99.90
48836;DHT22;62581;47.342;7.908;2022-11-04T03:14:12;10.00;99.90
48836;DHT22;62581;47.342;7.908;2022-11-04T03:16:40;10.00;99.90
48836;DHT22;62581;47.342;7.908;2022-11-04T03:19:12;10.00;99.90
48836;DHT22;62581;47.342;7.908;2022-11-04T03:21:40;10.00;99.90
48836;DHT22;62581;47.342;7.908;2022-11-04T03:24:09;10.00;99.90
48836;DHT22;62581;47.342;7.908;2022-11-04T03:26:37;10.00;99.90
48836;DHT22;62581;47.342;7.908;2022-11-04T03:29:10;10.00;99.90
48836;DHT22;62581;47.342;7.908;2022-11-04T03:31:39;10.10;99.90
48836;DHT22;62581;47.342;7.908;2022-11-04T03:34:10;10.00;99.90
48836;DHT22;62581;47.342;7.908;2022-11-04T03:36:37;10.10;99.90
48836;DHT22;62581;47.342;7.908;2022-11-04T03:39:04;10.00;99.90
48836;DHT22;62581;47.342;7.908;2022-11-04T03:41:32;10.10;99.90
48836;DHT22;62581;47.342;7.908;2022-11-04T03:43:59;10.00;99.90
48836;DHT22;62581;47.342;7.908;2022-11-04T03:46:26;10.00;99.90
48836;DHT22;62581;47.342;7.908;2022-11-04T03:48:53;10.00;99.90
48836;DHT22;62581;47.342;7.908;2022-11-04T03:51:22;10.00;99.90
48836;DHT22;62581;47.342;7.908;2022-11-04T03:53:49;9.90;99.90
48836;DHT22;62581;47.342;7.908;2022-11-04T03:59:00;9.80;99.90
48836;DHT22;62581;47.342;7.908;2022-11-04T04:01:30;9.80;99.90
48836;DHT22;62581;47.342;7.908;2022-11-04T04:04:00;9.80;99.90
48836;DHT22;62581;47.342;7.908;2022-11-04T04:06:30;9.80;99.90
48836;DHT22;62581;47.342;7.908;2022-11-04T04:09:00;9.80;99.90
48836;DHT22;62581;47.342;7.908;2022-11-04T04:11:31;9.80;99.90
48836;DHT22;62581;47.342;7.908;2022-11-04T04:14:02;9.70;99.90
48836;DHT22;62581;47.342;7.908;2022-11-04T04:16:31;9.80;99.90
48836;DHT22;62581;47.342;7.908;2022-11-04T04:19:00;9.70;99.90
48836;DHT22;62581;47.342;7.908;2022-11-04T04:21:30;9.70;99.90
48836;DHT22;62581;47.342;7.908;2022-11-04T04:23:58;9.70;99.90
48836;DHT22;62581;47.342;7.908;2022-11-04T04:26:43;9.70;99.90
48836;DHT22;62581;47.342;7.908;2022-11-04T04:29:27;9.60;99.90
48836;DHT22;62581;47.342;7.908;2022-11-04T04:31:55;9.60;99.90
48836;DHT22;62581;47.342;7.908;2022-11-04T04:34:24;9.60;99.90
48836;DHT22;62581;47.342;7.908;2022-11-04T04:36:56;9.50;99.90
48836;DHT22;62581;47.342;7.908;2022-11-04T04:39:24;9.50;99.90
48836;DHT22;62581;47.342;7.908;2022-11-04T04:42:10;9.50;99.90
48836;DHT22;62581;47.342;7.908;2022-11-04T04:44:54;9.50;99.90
48836;DHT22;62581;47.342;7.908;2022-11-04T04:47:29;9.50;99.90
48836;DHT22;62581;47.342;7.908;2022-11-04T04:49:57;9.50;99.90
48836;DHT22;62581;47.342;7.908;2022-11-04T04:52:26;9.40;99.90
48836;DHT22;62581;47.342;7.908;2022-11-04T04:54:54;9.40;99.90
48836;DHT22;62581;47.342;7.908;2022-11-04T04:57:21;9.40;99.90
48836;DHT22;62581;47.342;7.908;2022-11-04T04:59:47;9.50;99.90
48836;DHT22;62581;47.342;7.908;2022-11-04T05:02:14;9.50;99.90
48836;DHT22;62581;47.342;7.908;2022-11-04T05:04:41;9.50;99.90
48836;DHT22;62581;47.342;7.908;2022-11-04T05:07:08;9.50;99.90
48836;DHT22;62581;47.342;7.908;2022-11-04T05:09:36;9.50;99.90
48836;DHT22;62581;47.342;7.908;2022-11-04T05:12:03;9.50;99.90
48836;DHT22;62581;47.342;7.908;2022-11-04T05:14:30;9.50;99.90
48836;DHT22;62581;47.342;7.908;2022-11-04T05:16:56;9.40;99.90
48836;DHT22;62581;47.342;7.908;2022-11-04T05:19:23;9.40;99.90
48836;DHT22;62581;47.342;7.908;2022-11-04T05:21:50;9.40;99.90
48836;DHT22;62581;47.342;7.908;2022-11-04T05:24:17;9.40;99.90
48836;DHT22;62581;47.342;7.908;2022-11-04T05:26:45;9.50;99.90
48836;DHT22;62581;47.342;7.908;2022-11-04T05:29:12;9.50;99.90
48836;DHT22;62581;47.342;7.908;2022-11-04T05:31:38;9.50;99.90
48836;DHT22;62581;47.342;7.908;2022-11-04T05:34:05;9.50;99.90
48836;DHT22;62581;47.342;7.908;2022-11-04T05:36:32;9.50;99.90
48836;DHT22;62581;47.342;7.908;2022-11-04T05:38:59;9.50;99.90
48836;DHT22;62581;47.342;7.908;2022-11-04T05:41:26;9.50;99.90
48836;DHT22;62581;47.342;7.908;2022-11-04T05:43:55;9.50;99.90
48836;DHT22;62581;47.342;7.908;2022-11-04T05:46:22;9.50;99.90
48836;DHT22;62581;47.342;7.908;2022-11-04T05:48:49;9.50;99.90
48836;DHT22;62581;47.342;7.908;2022-11-04T05:51:16;9.50;99.90
48836;DHT22;62581;47.342;7.908;2022-11-04T05:53:43;9.50;99.90
48836;DHT22;62581;47.342;7.908;2022-11-04T05:56:10;9.40;99.90
48836;DHT22;62581;47.342;7.908;2022-11-04T05:58:37;9.40;99.90
48836;DHT22;62581;47.342;7.908;2022-11-04T06:01:12;9.40;99.90
48836;DHT22;62581;47.342;7.908;2022-11-04T06:03:39;9.40;99.90
48836;DHT22;62581;47.342;7.908;2022-11-04T06:06:06;9.40;99.90
48836;DHT22;62581;47.342;7.908;2022-11-04T06:08:33;9.30;99.90
48836;DHT22;62581;47.342;7.908;2022-11-04T06:11:00;9.30;99.90
48836;DHT22;62581;47.342;7.908;2022-11-04T06:13:29;9.30;99.90
48836;DHT22;62581;47.342;7.908;2022-11-04T06:15:56;9.20;99.90
48836;DHT22;62581;47.342;7.908;2022-11-04T06:18:24;9.20;99.90
48836;DHT22;62581;47.342;7.908;2022-11-04T06:21:05;9.20;99.90
48836;DHT22;62581;47.342;7.908;2022-11-04T06:23:32;9.20;99.90
48836;DHT22;62581;47.342;7.908;2022-11-04T06:25:58;9.20;99.90
48836;DHT22;62581;47.342;7.908;2022-11-04T06:28:25;9.10;99.90
48836;DHT22;62581;47.342;7.908;2022-11-04T06:30:52;9.10;99.90
48836;DHT22;62581;47.342;7.908;2022-11-04T06:33:19;9.10;99.90
48836;DHT22;62581;47.342;7.908;2022-11-04T06:35:47;9.10;99.90
48836;DHT22;62581;47.342;7.908;2022-11-04T06:38:14;9.20;99.90
48836;DHT22;62581;47.342;7.908;2022-11-04T06:40:40;9.20;99.90
48836;DHT22;62581;47.342;7.908;2022-11-04T06:43:07;9.10;99.90
48836;DHT22;62581;47.342;7.908;2022-11-04T06:45:34;9.10;99.90
48836;DHT22;62581;47.342;7.908;2022-11-04T06:48:01;9.20;99.90
48836;DHT22;62581;47.342;7.908;2022-11-04T06:50:27;9.20;99.90
48836;DHT22;62581;47.342;7.908;2022-11-04T06:52:56;9.20;99.90
48836;DHT22;62581;47.342;7.908;2022-11-04T06:55:23;9.20;99.90
48836;DHT22;62581;47.342;7.908;2022-11-04T06:57:50;9.30;99.90
48836;DHT22;62581;47.342;7.908;2022-11-04T07:00:17;9.30;99.90
48836;DHT22;62581;47.342;7.908;2022-11-04T07:02:44;9.40;99.90
48836;DHT22;62581;47.342;7.908;2022-11-04T07:05:10;9.30;99.90
48836;DHT22;62581;47.342;7.908;2022-11-04T07:07:39;9.30;99.90
48836;DHT22;62581;47.342;7.908;2022-11-04T07:10:07;9.40;99.90
48836;DHT22;62581;47.342;7.908;2022-11-04T07:12:34;9.40;99.90
48836;DHT22;62581;47.342;7.908;2022-11-04T07:15:01;9.50;99.90
48836;DHT22;62581;47.342;7.908;2022-11-04T07:17:27;9.50;99.90
48836;DHT22;62581;47.342;7.908;2022-11-04T07:19:54;9.50;99.90
48836;DHT22;62581;47.342;7.908;2022-11-04T07:22:21;9.50;99.90
48836;DHT22;62581;47.342;7.908;2022-11-04T07:24:48;9.60;99.90
48836;DHT22;62581;47.342;7.908;2022-11-04T07:27:16;9.60;99.90
48836;DHT22;62581;47.342;7.908;2022-11-04T07:29:43;9.60;99.90
48836;DHT22;62581;47.342;7.908;2022-11-04T07:32:09;9.60;99.90
48836;DHT22;62581;47.342;7.908;2022-11-04T07:34:36;9.70;99.90
48836;DHT22;62581;47.342;7.908;2022-11-04T07:37:03;9.70;99.90
48836;DHT22;62581;47.342;7.908;2022-11-04T07:39:30;9.80;99.90
48836;DHT22;62581;47.342;7.908;2022-11-04T07:41:56;9.80;99.90
48836;DHT22;62581;47.342;7.908;2022-11-04T07:44:25;9.90;99.90
48836;DHT22;62581;47.342;7.908;2022-11-04T07:46:52;9.90;99.90
48836;DHT22;62581;47.342;7.908;2022-11-04T07:49:18;9.90;99.90
48836;DHT22;62581;47.342;7.908;2022-11-04T07:51:45;10.00;99.90
48836;DHT22;62581;47.342;7.908;2022-11-04T07:54:12;10.10;99.90
48836;DHT22;62581;47.342;7.908;2022-11-04T07:56:39;10.10;99.90
48836;DHT22;62581;47.342;7.908;2022-11-04T07:59:06;10.10;99.90
48836;DHT22;62581;47.342;7.908;2022-11-04T08:01:34;10.10;99.90
48836;DHT22;62581;47.342;7.908;2022-11-04T08:04:01;10.10;99.90
48836;DHT22;62581;47.342;7.908;2022-11-04T08:06:29;10.10;99.90
48836;DHT22;62581;47.342;7.908;2022-11-04T08:08:56;10.20;99.90
48836;DHT22;62581;47.342;7.908;2022-11-04T08:11:23;10.20;99.90
48836;DHT22;62581;47.342;7.908;2022-11-04T08:13:53;10.30;99.90
48836;DHT22;62581;47.342;7.908;2022-11-04T08:16:20;10.40;99.90
48836;DHT22;62581;47.342;7.908;2022-11-04T08:18:49;10.30;99.90
48836;DHT22;62581;47.342;7.908;2022-11-04T08:21:17;10.30;99.90
48836;DHT22;62581;47.342;7.908;2022-11-04T08:23:44;10.20;99.90
48836;DHT22;62581;47.342;7.908;2022-11-04T08:26:13;10.20;99.90
48836;DHT22;62581;47.342;7.908;2022-11-04T08:28:41;10.20;99.90
48836;DHT22;62581;47.342;7.908;2022-11-04T08:31:08;10.20;99.90
48836;DHT22;62581;47.342;7.908;2022-11-04T08:33:35;10.40;99.90
48836;DHT22;62581;47.342;7.908;2022-11-04T08:36:04;10.40;99.90
48836;DHT22;62581;47.342;7.908;2022-11-04T08:38:33;10.50;99.90
48836;DHT22;62581;47.342;7.908;2022-11-04T08:41:01;10.50;99.90
48836;DHT22;62581;47.342;7.908;2022-11-04T08:43:29;10.60;99.90
48836;DHT22;62581;47.342;7.908;2022-11-04T08:45:56;10.70;99.90
48836;DHT22;62581;47.342;7.908;2022-11-04T08:48:23;10.80;99.90
48836;DHT22;62581;47.342;7.908;2022-11-04T08:50:50;10.90;99.90
48836;DHT22;62581;47.342;7.908;2022-11-04T08:53:18;10.90;99.90
48836;DHT22;62581;47.342;7.908;2022-11-04T08:55:46;10.90;99.90
48836;DHT22;62581;47.342;7.908;2022-11-04T08:58:13;11.00;99.90
48836;DHT22;62581;47.342;7.908;2022-11-04T09:00:39;11.00;99.90
48836;DHT22;62581;47.342;7.908;2022-11-04T09:03:06;11.10;99.90
48836;DHT22;62581;47.342;7.908;2022-11-04T09:05:35;11.10;99.90
48836;DHT22;62581;47.342;7.908;2022-11-04T09:08:08;11.30;99.90
48836;DHT22;62581;47.342;7.908;2022-11-04T09:10:39;11.50;99.90
48836;DHT22;62581;47.342;7.908;2022-11-04T09:13:06;11.70;99.90
48836;DHT22;62581;47.342;7.908;2022-11-04T09:15:34;11.80;99.90
48836;DHT22;62581;47.342;7.908;2022-11-04T09:18:01;11.90;99.90
48836;DHT22;62581;47.342;7.908;2022-11-04T09:20:28;11.90;99.90
48836;DHT22;62581;47.342;7.908;2022-11-04T09:22:55;12.00;99.90
48836;DHT22;62581;47.342;7.908;2022-11-04T09:25:22;12.10;99.90
48836;DHT22;62581;47.342;7.908;2022-11-04T09:27:50;12.10;99.90
48836;DHT22;62581;47.342;7.908;2022-11-04T09:30:17;11.90;99.90
48836;DHT22;62581;47.342;7.908;2022-11-04T09:32:44;11.80;99.90
48836;DHT22;62581;47.342;7.908;2022-11-04T09:35:11;11.90;99.90
48836;DHT22;62581;47.342;7.908;2022-11-04T09:37:40;12.00;99.90
48836;DHT22;62581;47.342;7.908;2022-11-04T09:40:09;12.00;99.90
48836;DHT22;62581;47.342;7.908;2022-11-04T09:42:39;12.00;99.90
48836;DHT22;62581;47.342;7.908;2022-11-04T09:45:11;12.00;99.90
48836;DHT22;62581;47.342;7.908;2022-11-04T09:47:39;12.00;99.90
48836;DHT22;62581;47.342;7.908;2022-11-04T09:50:07;11.90;99.90
48836;DHT22;62581;47.342;7.908;2022-11-04T09:52:37;11.90;99.90
48836;DHT22;62581;47.342;7.908;2022-11-04T09:55:06;12.00;99.90
48836;DHT22;62581;47.342;7.908;2022-11-04T09:57:35;12.10;99.90
48836;DHT22;62581;47.342;7.908;2022-11-04T10:00:03;12.10;99.90
48836;DHT22;62581;47.342;7.908;2022-11-04T10:02:44;12.20;99.90
48836;DHT22;62581;47.342;7.908;2022-11-04T10:05:15;12.20;99.90
48836;DHT22;62581;47.342;7.908;2022-11-04T10:07:50;12.20;99.90
48836;DHT22;62581;47.342;7.908;2022-11-04T10:10:23;12.30;99.90
48836;DHT22;62581;47.342;7.908;2022-11-04T10:12:55;12.30;99.90
48836;DHT22;62581;47.342;7.908;2022-11-04T10:15:31;12.30;99.90
48836;DHT22;62581;47.342;7.908;2022-11-04T10:18:05;12.40;99.90
48836;DHT22;62581;47.342;7.908;2022-11-04T10:20:41;12.50;99.90
48836;DHT22;62581;47.342;7.908;2022-11-04T10:23:12;12.60;99.90
48836;DHT22;62581;47.342;7.908;2022-11-04T10:25:45;12.80;99.90
48836;DHT22;62581;47.342;7.908;2022-11-04T10:28:13;12.80;99.90
48836;DHT22;62581;47.342;7.908;2022-11-04T10:30:41;12.80;99.90
48836;DHT22;62581;47.342;7.908;2022-11-04T10:33:21;12.90;99.90
48836;DHT22;62581;47.342;7.908;2022-11-04T10:35:50;12.90;99.90
48836;DHT22;62581;47.342;7.908;2022-11-04T10:38:23;12.80;99.90
48836;DHT22;62581;47.342;7.908;2022-11-04T10:40:52;12.80;99.90
48836;DHT22;62581;47.342;7.908;2022-11-04T10:43:22;12.80;99.90
48836;DHT22;62581;47.342;7.908;2022-11-04T10:45:53;12.80;99.90
48836;DHT22;62581;47.342;7.908;2022-11-04T10:48:27;12.80;99.90
48836;DHT22;62581;47.342;7.908;2022-11-04T10:50:55;12.90;99.90
48836;DHT22;62581;47.342;7.908;2022-11-04T10:53:23;12.80;99.90
48836;DHT22;62581;47.342;7.908;2022-11-04T10:55:53;12.80;99.90
48836;DHT22;62581;47.342;7.908;2022-11-04T10:58:23;12.80;99.90
48836;DHT22;62581;47.342;7.908;2022-11-04T11:00:51;12.80;99.90
48836;DHT22;62581;47.342;7.908;2022-11-04T11:03:23;12.80;99.90
48836;DHT22;62581;47.342;7.908;2022-11-04T11:05:51;13.00;99.90
48836;DHT22;62581;47.342;7.908;2022-11-04T11:08:26;13.10;99.90
48836;DHT22;62581;47.342;7.908;2022-11-04T11:10:53;13.30;99.90
48836;DHT22;62581;47.342;7.908;2022-11-04T11:13:24;13.40;99.90
48836;DHT22;62581;47.342;7.908;2022-11-04T11:16:03;13.50;99.90
48836;DHT22;62581;47.342;7.908;2022-11-04T11:18:30;13.70;99.90
48836;DHT22;62581;47.342;7.908;2022-11-04T11:21:04;13.80;99.90
48836;DHT22;62581;47.342;7.908;2022-11-04T11:23:34;13.90;99.90
48836;DHT22;62581;47.342;7.908;2022-11-04T11:26:01;13.90;99.90
48836;DHT22;62581;47.342;7.908;2022-11-04T11:28:28;14.00;99.90
48836;DHT22;62581;47.342;7.908;2022-11-04T11:31:03;14.20;99.90
48836;DHT22;62581;47.342;7.908;2022-11-04T11:33:33;14.40;99.90
48836;DHT22;62581;47.342;7.908;2022-11-04T11:36:01;14.60;99.90
48836;DHT22;62581;47.342;7.908;2022-11-04T11:38:32;14.80;99.90
48836;DHT22;62581;47.342;7.908;2022-11-04T11:41:04;14.90;99.90
48836;DHT22;62581;47.342;7.908;2022-11-04T11:43:31;14.90;99.90
48836;DHT22;62581;47.342;7.908;2022-11-04T11:45:59;14.80;99.90
48836;DHT22;62581;47.342;7.908;2022-11-04T11:48:26;14.70;99.90
48836;DHT22;62581;47.342;7.908;2022-11-04T11:50:54;14.60;99.90
48836;DHT22;62581;47.342;7.908;2022-11-04T11:53:23;14.30;99.90
48836;DHT22;62581;47.342;7.908;2022-11-04T11:55:54;14.30;99.90
48836;DHT22;62581;47.342;7.908;2022-11-04T11:58:27;14.30;99.90
48836;DHT22;62581;47.342;7.908;2022-11-04T12:00:57;14.30;99.90
48836;DHT22;62581;47.342;7.908;2022-11-04T12:03:28;14.50;99.90
48836;DHT22;62581;47.342;7.908;2022-11-04T12:06:02;14.60;99.90
48836;DHT22;62581;47.342;7.908;2022-11-04T12:08:41;14.70;99.90
48836;DHT22;62581;47.342;7.908;2022-11-04T12:11:12;14.60;99.90
48836;DHT22;62581;47.342;7.908;2022-11-04T12:13:42;14.60;99.90
48836;DHT22;62581;47.342;7.908;2022-11-04T12:16:15;14.50;99.90
48836;DHT22;62581;47.342;7.908;2022-11-04T12:18:49;14.40;99.90
48836;DHT22;62581;47.342;7.908;2022-11-04T12:21:18;14.40;99.90
48836;DHT22;62581;47.342;7.908;2022-11-04T12:23:49;14.40;99.90
48836;DHT22;62581;47.342;7.908;2022-11-04T12:26:23;14.20;99.90
48836;DHT22;62581;47.342;7.908;2022-11-04T12:29:00;14.00;99.90
48836;DHT22;62581;47.342;7.908;2022-11-04T12:31:31;13.80;99.90
48836;DHT22;62581;47.342;7.908;2022-11-04T12:34:01;13.80;99.90
48836;DHT22;62581;47.342;7.908;2022-11-04T12:36:35;13.70;99.90
48836;DHT22;62581;47.342;7.908;2022-11-04T12:39:10;13.70;99.90
48836;DHT22;62581;47.342;7.908;2022-11-04T12:41:44;13.70;99.90
48836;DHT22;62581;47.342;7.908;2022-11-04T12:44:17;13.70;99.90
48836;DHT22;62581;47.342;7.908;2022-11-04T12:46:51;13.80;99.90
48836;DHT22;62581;47.342;7.908;2022-11-04T12:49:26;13.80;99.90
48836;DHT22;62581;47.342;7.908;2022-11-04T12:51:58;13.90;99.90
48836;DHT22;62581;47.342;7.908;2022-11-04T12:54:35;13.90;99.90
48836;DHT22;62581;47.342;7.908;2022-11-04T12:57:11;13.70;99.90
48836;DHT22;62581;47.342;7.908;2022-11-04T12:59:45;13.80;99.90
48836;DHT22;62581;47.342;7.908;2022-11-04T13:02:15;13.80;99.90
48836;DHT22;62581;47.342;7.908;2022-11-04T13:04:46;13.80;99.90
48836;DHT22;62581;47.342;7.908;2022-11-04T13:07:17;13.80;99.90
48836;DHT22;62581;47.342;7.908;2022-11-04T13:09:46;13.80;99.90
48836;DHT22;62581;47.342;7.908;2022-11-04T13:12:16;13.90;99.90
48836;DHT22;62581;47.342;7.908;2022-11-04T13:14:45;13.90;99.90
48836;DHT22;62581;47.342;7.908;2022-11-04T13:17:13;13.80;99.90
48836;DHT22;62581;47.342;7.908;2022-11-04T13:19:42;13.70;99.90
48836;DHT22;62581;47.342;7.908;2022-11-04T13:22:10;13.80;99.90
48836;DHT22;62581;47.342;7.908;2022-11-04T13:24:39;13.70;99.90
48836;DHT22;62581;47.342;7.908;2022-11-04T13:27:12;13.70;99.90
48836;DHT22;62581;47.342;7.908;2022-11-04T13:29:42;13.70;99.90
48836;DHT22;62581;47.342;7.908;2022-11-04T13:32:09;13.60;99.90
48836;DHT22;62581;47.342;7.908;2022-11-04T13:34:41;13.60;99.90
48836;DHT22;62581;47.342;7.908;2022-11-04T13:37:15;13.50;99.90
48836;DHT22;62581;47.342;7.908;2022-11-04T13:39:43;13.50;99.90
48836;DHT22;62581;47.342;7.908;2022-11-04T13:45:04;13.60;99.90
48836;DHT22;62581;47.342;7.908;2022-11-04T13:47:36;13.60;99.90
48836;DHT22;62581;47.342;7.908;2022-11-04T13:50:04;13.50;99.90
48836;DHT22;62581;47.342;7.908;2022-11-04T13:52:31;13.60;99.90
48836;DHT22;62581;47.342;7.908;2022-11-04T13:55:01;13.60;99.90
48836;DHT22;62581;47.342;7.908;2022-11-04T13:57:28;13.60;99.90
48836;DHT22;62581;47.342;7.908;2022-11-04T14:00:07;13.60;99.90
48836;DHT22;62581;47.342;7.908;2022-11-04T14:02:44;13.60;99.90
48836;DHT22;62581;47.342;7.908;2022-11-04T14:08:10;13.60;99.90
48836;DHT22;62581;47.342;7.908;2022-11-04T14:16:09;13.60;99.90
48836;DHT22;62581;47.342;7.908;2022-11-04T14:18:38;13.60;99.90
48836;DHT22;62581;47.342;7.908;2022-11-04T14:21:06;13.50;99.90
48836;DHT22;62581;47.342;7.908;2022-11-04T14:23:33;13.60;99.90
48836;DHT22;62581;47.342;7.908;2022-11-04T14:26:02;13.70;99.90
48836;DHT22;62581;47.342;7.908;2022-11-04T14:28:29;13.80;99.90
48836;DHT22;62581;47.342;7.908;2022-11-04T14:30:56;13.80;99.90
48836;DHT22;62581;47.342;7.908;2022-11-04T14:33:35;13.70;99.90
48836;DHT22;62581;47.342;7.908;2022-11-04T14:38:57;13.60;99.90
48836;DHT22;62581;47.342;7.908;2022-11-04T14:41:30;13.60;99.90
48836;DHT22;62581;47.342;7.908;2022-11-04T14:43:57;13.50;99.90
48836;DHT22;62581;47.342;7.908;2022-11-04T14:46:26;13.50;99.90
48836;DHT22;62581;47.342;7.908;2022-11-04T14:48:55;13.40;99.90
48836;DHT22;62581;47.342;7.908;2022-11-04T14:51:27;13.30;99.90
48836;DHT22;62581;47.342;7.908;2022-11-04T14:53:55;13.30;99.90
48836;DHT22;62581;47.342;7.908;2022-11-04T14:56:25;13.20;99.90
48836;DHT22;62581;47.342;7.908;2022-11-04T14:58:55;13.10;99.90
48836;DHT22;62581;47.342;7.908;2022-11-04T15:01:23;13.10;99.90
48836;DHT22;62581;47.342;7.908;2022-11-04T15:03:50;13.00;99.90
48836;DHT22;62581;47.342;7.908;2022-11-04T15:06:26;12.90;99.90
48836;DHT22;62581;47.342;7.908;2022-11-04T15:08:53;12.90;99.90
48836;DHT22;62581;47.342;7.908;2022-11-04T15:11:22;12.80;99.90
48836;DHT22;62581;47.342;7.908;2022-11-04T15:14:08;12.50;99.90
48836;DHT22;62581;47.342;7.908;2022-11-04T15:16:38;12.30;99.90
48836;DHT22;62581;47.342;7.908;2022-11-04T15:19:06;12.20;99.90
48836;DHT22;62581;47.342;7.908;2022-11-04T15:21:38;12.10;99.90
48836;DHT22;62581;47.342;7.908;2022-11-04T15:24:05;12.00;99.90
48836;DHT22;62581;47.342;7.908;2022-11-04T15:26:35;12.00;99.90
48836;DHT22;62581;47.342;7.908;2022-11-04T15:29:07;11.90;99.90
48836;DHT22;62581;47.342;7.908;2022-11-04T15:31:35;11.90;99.90
48836;DHT22;62581;47.342;7.908;2022-11-04T15:34:03;11.90;99.90
48836;DHT22;62581;47.342;7.908;2022-11-04T15:36:31;11.90;99.90
48836;DHT22;62581;47.342;7.908;2022-11-04T15:39:01;11.80;99.90
48836;DHT22;62581;47.342;7.908;2022-11-04T15:41:28;11.80;99.90
48836;DHT22;62581;47.342;7.908;2022-11-04T15:44:14;11.70;99.90
48836;DHT22;62581;47.342;7.908;2022-11-04T15:46:46;11.70;99.90
48836;DHT22;62581;47.342;7.908;2022-11-04T15:49:17;11.60;99.90
48836;DHT22;62581;47.342;7.908;2022-11-04T15:51:45;11.60;99.90
48836;DHT22;62581;47.342;7.908;2022-11-04T15:54:17;11.40;99.90
48836;DHT22;62581;47.342;7.908;2022-11-04T15:56:46;11.40;99.90
48836;DHT22;62581;47.342;7.908;2022-11-04T15:59:17;11.30;99.90
48836;DHT22;62581;47.342;7.908;2022-11-04T16:01:45;11.20;99.90
48836;DHT22;62581;47.342;7.908;2022-11-04T16:04:13;11.20;99.90
48836;DHT22;62581;47.342;7.908;2022-11-04T16:06:40;11.10;99.90
48836;DHT22;62581;47.342;7.908;2022-11-04T16:09:20;11.00;99.90
48836;DHT22;62581;47.342;7.908;2022-11-04T16:12:03;11.00;99.90